sensor_id;sensor_type;location;lat;lon;timestamp;P1;durP1;ratioP1;P2;durP2;ratioP2
11582;SDS011;34299;50.820;4.548;2023-06-14T00:01:15;5.37;;;3.93;;
11582;SDS011;34299;50.820;4.548;2023-06-14T00:03:42;9.00;;;4.60;;
11582;SDS011;34299;50.820;4.548;2023-06-14T00:06:09;6.93;;;3.97;;
11582;SDS011;34299;50.820;4.548;2023-06-14T00:08:36;5.73;;;4.10;;
11582;SDS011;34299;50.820;4.548;2023-06-14T00:11:03;5.50;;;3.53;;
11582;SDS011;34299;50.820;4.548;2023-06-14T00:13:30;6.93;;;4.57;;
11582;SDS011;34299;50.820;4.548;2023-06-14T00:15:58;6.57;;;4.37;;
11582;SDS011;34299;50.820;4.548;2023-06-14T00:18:25;5.10;;;4.53;;
11582;SDS011;34299;50.820;4.548;2023-06-14T00:20:54;7.33;;;4.80;;
11582;SDS011;34299;50.820;4.548;2023-06-14T00:23:21;5.30;;;3.60;;
11582;SDS011;34299;50.820;4.548;2023-06-14T00:25:48;5.77;;;5.00;;
11582;SDS011;34299;50.820;4.548;2023-06-14T00:28:15;7.97;;;4.77;;
11582;SDS011;34299;50.820;4.548;2023-06-14T00:30:42;5.63;;;5.07;;
11582;SDS011;34299;50.820;4.548;2023-06-14T00:33:12;5.80;;;4.87;;
11582;SDS011;34299;50.820;4.548;2023-06-14T00:35:40;6.10;;;4.70;;
11582;SDS011;34299;50.820;4.548;2023-06-14T00:38:07;6.93;;;4.97;;
11582;SDS011;34299;50.820;4.548;2023-06-14T00:40:35;6.20;;;4.77;;
11582;SDS011;34299;50.820;4.548;2023-06-14T00:43:02;5.23;;;4.10;;
11582;SDS011;34299;50.820;4.548;2023-06-14T00:45:29;6.87;;;4.50;;
11582;SDS011;34299;50.820;4.548;2023-06-14T00:48:00;5.93;;;4.23;;
11582;SDS011;34299;50.820;4.548;2023-06-14T00:50:30;6.37;;;3.87;;
11582;SDS011;34299;50.820;4.548;2023-06-14T00:52:58;5.67;;;4.33;;
11582;SDS011;34299;50.820;4.548;2023-06-14T00:55:26;7.10;;;4.37;;
11582;SDS011;34299;50.820;4.548;2023-06-14T00:57:55;10.87;;;4.47;;
11582;SDS011;34299;50.820;4.548;2023-06-14T01:00:22;5.03;;;3.93;;
11582;SDS011;34299;50.820;4.548;2023-06-14T01:02:50;6.27;;;4.50;;
11582;SDS011;34299;50.820;4.548;2023-06-14T01:05:17;7.33;;;3.80;;
11582;SDS011;34299;50.820;4.548;2023-06-14T01:07:49;6.20;;;4.03;;
11582;SDS011;34299;50.820;4.548;2023-06-14T01:10:31;5.90;;;4.00;;
11582;SDS011;34299;50.820;4.548;2023-06-14T01:13:05;6.77;;;4.53;;
11582;SDS011;34299;50.820;4.548;2023-06-14T01:15:35;5.83;;;4.40;;
11582;SDS011;34299;50.820;4.548;2023-06-14T01:18:03;7.60;;;5.00;;
11582;SDS011;34299;50.820;4.548;2023-06-14T01:20:32;6.60;;;5.20;;
11582;SDS011;34299;50.820;4.548;2023-06-14T01:23:03;6.30;;;4.03;;
11582;SDS011;34299;50.820;4.548;2023-06-14T01:25:31;5.67;;;4.27;;
11582;SDS011;34299;50.820;4.548;2023-06-14T01:27:58;5.00;;;4.17;;
11582;SDS011;34299;50.820;4.548;2023-06-14T01:30:29;4.53;;;3.80;;
11582;SDS011;34299;50.820;4.548;2023-06-14T01:32:58;5.80;;;4.83;;
11582;SDS011;34299;50.820;4.548;2023-06-14T01:35:26;7.97;;;5.27;;
11582;SDS011;34299;50.820;4.548;2023-06-14T01:37:53;7.13;;;5.10;;
11582;SDS011;34299;50.820;4.548;2023-06-14T01:40:21;5.93;;;4.77;;
11582;SDS011;34299;50.820;4.548;2023-06-14T01:42:50;5.57;;;4.90;;
11582;SDS011;34299;50.820;4.548;2023-06-14T01:45:18;5.93;;;5.10;;
11582;SDS011;34299;50.820;4.548;2023-06-14T01:47:46;7.13;;;4.77;;
11582;SDS011;34299;50.820;4.548;2023-06-14T01:50:13;5.50;;;4.03;;
11582;SDS011;34299;50.820;4.548;2023-06-14T01:52:40;7.40;;;4.17;;
11582;SDS011;34299;50.820;4.548;2023-06-14T01:55:07;5.90;;;4.67;;
11582;SDS011;34299;50.820;4.548;2023-06-14T01:57:36;7.83;;;5.93;;
11582;SDS011;34299;50.820;4.548;2023-06-14T02:00:03;4.77;;;4.37;;
11582;SDS011;34299;50.820;4.548;2023-06-14T02:02:35;6.67;;;5.00;;
11582;SDS011;34299;50.820;4.548;2023-06-14T02:05:02;4.50;;;4.00;;
11582;SDS011;34299;50.820;4.548;2023-06-14T02:07:30;5.93;;;4.20;;
11582;SDS011;34299;50.820;4.548;2023-06-14T02:09:57;5.53;;;4.67;;
11582;SDS011;34299;50.820;4.548;2023-06-14T02:12:24;5.07;;;4.40;;
11582;SDS011;34299;50.820;4.548;2023-06-14T02:14:52;5.63;;;4.60;;
11582;SDS011;34299;50.820;4.548;2023-06-14T02:17:19;5.40;;;4.70;;
11582;SDS011;34299;50.820;4.548;2023-06-14T02:19:46;8.00;;;4.57;;
11582;SDS011;34299;50.820;4.548;2023-06-14T02:22:13;4.73;;;4.27;;
11582;SDS011;34299;50.820;4.548;2023-06-14T02:24:41;6.27;;;4.53;;
11582;SDS011;34299;50.820;4.548;2023-06-14T02:27:08;5.97;;;4.30;;
11582;SDS011;34299;50.820;4.548;2023-06-14T02:29:35;6.67;;;4.63;;
11582;SDS011;34299;50.820;4.548;2023-06-14T02:32:04;5.37;;;4.43;;
11582;SDS011;34299;50.820;4.548;2023-06-14T02:34:32;6.70;;;4.70;;
11582;SDS011;34299;50.820;4.548;2023-06-14T02:36:59;6.23;;;4.00;;
11582;SDS011;34299;50.820;4.548;2023-06-14T02:39:28;6.33;;;4.40;;
11582;SDS011;34299;50.820;4.548;2023-06-14T02:41:55;5.20;;;4.20;;
11582;SDS011;34299;50.820;4.548;2023-06-14T02:44:24;4.43;;;3.97;;
11582;SDS011;34299;50.820;4.548;2023-06-14T02:46:51;8.47;;;4.43;;
11582;SDS011;34299;50.820;4.548;2023-06-14T02:49:20;5.23;;;4.20;;
11582;SDS011;34299;50.820;4.548;2023-06-14T02:51:47;5.77;;;4.60;;
11582;SDS011;34299;50.820;4.548;2023-06-14T02:54:14;5.47;;;4.50;;
11582;SDS011;34299;50.820;4.548;2023-06-14T02:56:41;5.63;;;5.00;;
11582;SDS011;34299;50.820;4.548;2023-06-14T02:59:08;6.37;;;4.83;;
11582;SDS011;34299;50.820;4.548;2023-06-14T03:01:35;5.70;;;4.73;;
11582;SDS011;34299;50.820;4.548;2023-06-14T03:04:06;6.47;;;4.37;;
11582;SDS011;34299;50.820;4.548;2023-06-14T03:06:34;6.40;;;5.03;;
11582;SDS011;34299;50.820;4.548;2023-06-14T03:09:02;8.33;;;4.77;;
11582;SDS011;34299;50.820;4.548;2023-06-14T03:11:30;4.90;;;4.20;;
11582;SDS011;34299;50.820;4.548;2023-06-14T03:13:57;5.40;;;4.73;;
11582;SDS011;34299;50.820;4.548;2023-06-14T03:16:24;7.63;;;4.73;;
11582;SDS011;34299;50.820;4.548;2023-06-14T03:18:54;5.53;;;4.53;;
11582;SDS011;34299;50.820;4.548;2023-06-14T03:21:23;6.00;;;4.57;;
11582;SDS011;34299;50.820;4.548;2023-06-14T03:23:52;5.30;;;4.70;;
11582;SDS011;34299;50.820;4.548;2023-06-14T03:26:19;8.60;;;5.33;;
11582;SDS011;34299;50.820;4.548;2023-06-14T03:28:47;6.83;;;4.83;;
11582;SDS011;34299;50.820;4.548;2023-06-14T03:31:15;7.83;;;4.47;;
11582;SDS011;34299;50.820;4.548;2023-06-14T03:33:42;5.80;;;5.20;;
11582;SDS011;34299;50.820;4.548;2023-06-14T03:36:09;5.97;;;4.63;;
11582;SDS011;34299;50.820;4.548;2023-06-14T03:38:36;5.87;;;5.17;;
11582;SDS011;34299;50.820;4.548;2023-06-14T03:41:04;6.73;;;4.50;;
11582;SDS011;34299;50.820;4.548;2023-06-14T03:43:31;6.17;;;5.23;;
11582;SDS011;34299;50.820;4.548;2023-06-14T03:45:58;5.30;;;4.10;;
11582;SDS011;34299;50.820;4.548;2023-06-14T03:48:25;5.67;;;4.63;;
11582;SDS011;34299;50.820;4.548;2023-06-14T03:50:52;7.83;;;5.20;;
11582;SDS011;34299;50.820;4.548;2023-06-14T03:53:20;8.03;;;5.70;;
11582;SDS011;34299;50.820;4.548;2023-06-14T03:55:48;7.20;;;5.13;;
11582;SDS011;34299;50.820;4.548;2023-06-14T03:58:18;6.27;;;4.83;;
11582;SDS011;34299;50.820;4.548;2023-06-14T04:00:46;8.80;;;5.10;;
11582;SDS011;34299;50.820;4.548;2023-06-14T04:03:12;8.80;;;4.97;;
11582;SDS011;34299;50.820;4.548;2023-06-14T04:05:40;6.87;;;4.60;;
11582;SDS011;34299;50.820;4.548;2023-06-14T04:08:08;5.53;;;4.93;;
11582;SDS011;34299;50.820;4.548;2023-06-14T04:10:35;7.73;;;5.80;;
11582;SDS011;34299;50.820;4.548;2023-06-14T04:13:03;7.57;;;5.27;;
11582;SDS011;34299;50.820;4.548;2023-06-14T04:15:33;6.97;;;5.63;;
11582;SDS011;34299;50.820;4.548;2023-06-14T04:18:01;6.90;;;5.13;;
11582;SDS011;34299;50.820;4.548;2023-06-14T04:20:28;11.33;;;5.97;;
11582;SDS011;34299;50.820;4.548;2023-06-14T04:22:56;6.97;;;5.87;;
11582;SDS011;34299;50.820;4.548;2023-06-14T04:25:23;6.90;;;6.07;;
11582;SDS011;34299;50.820;4.548;2023-06-14T04:27:53;8.73;;;5.97;;
11582;SDS011;34299;50.820;4.548;2023-06-14T04:30:20;7.80;;;5.30;;
11582;SDS011;34299;50.820;4.548;2023-06-14T04:32:53;6.57;;;5.73;;
11582;SDS011;34299;50.820;4.548;2023-06-14T04:35:20;7.10;;;5.80;;
11582;SDS011;34299;50.820;4.548;2023-06-14T04:37:49;6.80;;;5.50;;
11582;SDS011;34299;50.820;4.548;2023-06-14T04:40:15;7.70;;;6.87;;
11582;SDS011;34299;50.820;4.548;2023-06-14T04:42:43;7.47;;;6.00;;
11582;SDS011;34299;50.820;4.548;2023-06-14T04:45:11;8.73;;;6.03;;
11582;SDS011;34299;50.820;4.548;2023-06-14T04:47:38;7.47;;;5.43;;
11582;SDS011;34299;50.820;4.548;2023-06-14T04:50:07;9.07;;;6.20;;
11582;SDS011;34299;50.820;4.548;2023-06-14T04:52:36;10.23;;;6.00;;
11582;SDS011;34299;50.820;4.548;2023-06-14T04:55:03;8.60;;;6.60;;
11582;SDS011;34299;50.820;4.548;2023-06-14T04:57:30;13.93;;;6.20;;
11582;SDS011;34299;50.820;4.548;2023-06-14T04:59:57;8.60;;;6.43;;
11582;SDS011;34299;50.820;4.548;2023-06-14T05:02:26;6.67;;;5.97;;
11582;SDS011;34299;50.820;4.548;2023-06-14T05:04:53;7.90;;;6.10;;
11582;SDS011;34299;50.820;4.548;2023-06-14T05:07:23;8.47;;;6.23;;
11582;SDS011;34299;50.820;4.548;2023-06-14T05:09:50;6.93;;;6.23;;
11582;SDS011;34299;50.820;4.548;2023-06-14T05:12:17;8.73;;;6.07;;
11582;SDS011;34299;50.820;4.548;2023-06-14T05:14:44;7.60;;;6.30;;
11582;SDS011;34299;50.820;4.548;2023-06-14T05:17:11;11.03;;;6.50;;
11582;SDS011;34299;50.820;4.548;2023-06-14T05:19:38;9.07;;;7.00;;
11582;SDS011;34299;50.820;4.548;2023-06-14T05:22:06;9.33;;;6.80;;
11582;SDS011;34299;50.820;4.548;2023-06-14T05:24:34;11.33;;;5.93;;
11582;SDS011;34299;50.820;4.548;2023-06-14T05:27:01;8.40;;;6.90;;
11582;SDS011;34299;50.820;4.548;2023-06-14T05:29:28;8.77;;;6.67;;
11582;SDS011;34299;50.820;4.548;2023-06-14T05:31:55;10.00;;;6.93;;
11582;SDS011;34299;50.820;4.548;2023-06-14T05:34:22;9.40;;;6.70;;
11582;SDS011;34299;50.820;4.548;2023-06-14T05:36:48;8.90;;;7.23;;
11582;SDS011;34299;50.820;4.548;2023-06-14T05:39:16;10.90;;;6.43;;
11582;SDS011;34299;50.820;4.548;2023-06-14T05:41:44;10.37;;;6.53;;
11582;SDS011;34299;50.820;4.548;2023-06-14T05:44:11;10.90;;;6.87;;
11582;SDS011;34299;50.820;4.548;2023-06-14T05:46:38;9.57;;;6.47;;
11582;SDS011;34299;50.820;4.548;2023-06-14T05:49:06;8.77;;;6.03;;
11582;SDS011;34299;50.820;4.548;2023-06-14T05:51:33;8.77;;;6.30;;
11582;SDS011;34299;50.820;4.548;2023-06-14T05:54:00;7.17;;;5.97;;
11582;SDS011;34299;50.820;4.548;2023-06-14T05:56:27;10.30;;;6.90;;
11582;SDS011;34299;50.820;4.548;2023-06-14T05:58:55;6.97;;;5.93;;
11582;SDS011;34299;50.820;4.548;2023-06-14T06:01:22;9.63;;;6.90;;
11582;SDS011;34299;50.820;4.548;2023-06-14T06:03:50;9.10;;;6.30;;
11582;SDS011;34299;50.820;4.548;2023-06-14T06:06:17;8.57;;;5.97;;
11582;SDS011;34299;50.820;4.548;2023-06-14T06:08:44;7.83;;;6.03;;
11582;SDS011;34299;50.820;4.548;2023-06-14T06:11:11;6.90;;;6.20;;
11582;SDS011;34299;50.820;4.548;2023-06-14T06:13:38;8.27;;;6.03;;
11582;SDS011;34299;50.820;4.548;2023-06-14T06:16:07;6.33;;;5.73;;
11582;SDS011;34299;50.820;4.548;2023-06-14T06:18:34;12.13;;;6.37;;
11582;SDS011;34299;50.820;4.548;2023-06-14T06:21:01;10.73;;;5.80;;
11582;SDS011;34299;50.820;4.548;2023-06-14T06:23:29;8.67;;;6.47;;
11582;SDS011;34299;50.820;4.548;2023-06-14T06:25:57;7.87;;;5.40;;
11582;SDS011;34299;50.820;4.548;2023-06-14T06:28:24;8.60;;;5.63;;
11582;SDS011;34299;50.820;4.548;2023-06-14T06:30:51;9.53;;;5.57;;
11582;SDS011;34299;50.820;4.548;2023-06-14T06:33:20;9.10;;;6.00;;
11582;SDS011;34299;50.820;4.548;2023-06-14T06:35:47;6.50;;;5.37;;
11582;SDS011;34299;50.820;4.548;2023-06-14T06:38:14;8.30;;;5.53;;
11582;SDS011;34299;50.820;4.548;2023-06-14T06:40:43;7.17;;;5.37;;
11582;SDS011;34299;50.820;4.548;2023-06-14T06:43:11;7.33;;;4.90;;
11582;SDS011;34299;50.820;4.548;2023-06-14T06:45:39;7.40;;;5.17;;
11582;SDS011;34299;50.820;4.548;2023-06-14T06:48:06;6.57;;;5.00;;
11582;SDS011;34299;50.820;4.548;2023-06-14T06:50:36;6.00;;;5.17;;
11582;SDS011;34299;50.820;4.548;2023-06-14T06:53:03;6.27;;;5.13;;
11582;SDS011;34299;50.820;4.548;2023-06-14T06:55:31;5.33;;;4.83;;
11582;SDS011;34299;50.820;4.548;2023-06-14T06:57:59;6.37;;;5.70;;
11582;SDS011;34299;50.820;4.548;2023-06-14T07:00:26;8.33;;;5.20;;
11582;SDS011;34299;50.820;4.548;2023-06-14T07:02:53;10.10;;;5.70;;
11582;SDS011;34299;50.820;4.548;2023-06-14T07:05:22;7.33;;;5.20;;
11582;SDS011;34299;50.820;4.548;2023-06-14T07:07:50;5.30;;;4.80;;
11582;SDS011;34299;50.820;4.548;2023-06-14T07:10:18;6.77;;;5.23;;
11582;SDS011;34299;50.820;4.548;2023-06-14T07:12:45;7.80;;;5.17;;
11582;SDS011;34299;50.820;4.548;2023-06-14T07:15:12;6.90;;;4.83;;
11582;SDS011;34299;50.820;4.548;2023-06-14T07:17:39;8.10;;;5.03;;
11582;SDS011;34299;50.820;4.548;2023-06-14T07:20:10;12.37;;;5.13;;
11582;SDS011;34299;50.820;4.548;2023-06-14T07:22:39;8.17;;;5.10;;
11582;SDS011;34299;50.820;4.548;2023-06-14T07:25:09;7.97;;;5.00;;
11582;SDS011;34299;50.820;4.548;2023-06-14T07:27:38;5.73;;;4.87;;
11582;SDS011;34299;50.820;4.548;2023-06-14T07:30:06;6.10;;;5.00;;
11582;SDS011;34299;50.820;4.548;2023-06-14T07:32:33;6.80;;;4.90;;
11582;SDS011;34299;50.820;4.548;2023-06-14T07:35:00;10.27;;;5.20;;
11582;SDS011;34299;50.820;4.548;2023-06-14T07:37:28;6.43;;;4.93;;
11582;SDS011;34299;50.820;4.548;2023-06-14T07:39:55;4.90;;;4.20;;
11582;SDS011;34299;50.820;4.548;2023-06-14T07:42:24;6.77;;;5.00;;
11582;SDS011;34299;50.820;4.548;2023-06-14T07:44:52;6.77;;;4.60;;
11582;SDS011;34299;50.820;4.548;2023-06-14T07:47:19;6.70;;;4.50;;
11582;SDS011;34299;50.820;4.548;2023-06-14T07:49:46;5.73;;;4.87;;
11582;SDS011;34299;50.820;4.548;2023-06-14T07:52:13;6.40;;;4.80;;
11582;SDS011;34299;50.820;4.548;2023-06-14T07:54:41;8.27;;;4.77;;
11582;SDS011;34299;50.820;4.548;2023-06-14T07:57:08;8.20;;;5.40;;
11582;SDS011;34299;50.820;4.548;2023-06-14T07:59:37;8.20;;;4.77;;
11582;SDS011;34299;50.820;4.548;2023-06-14T08:02:04;7.13;;;5.03;;
11582;SDS011;34299;50.820;4.548;2023-06-14T08:04:31;6.67;;;4.53;;
11582;SDS011;34299;50.820;4.548;2023-06-14T08:06:59;8.40;;;3.90;;
11582;SDS011;34299;50.820;4.548;2023-06-14T08:09:26;6.03;;;4.43;;
11582;SDS011;34299;50.820;4.548;2023-06-14T08:11:55;6.43;;;4.57;;
11582;SDS011;34299;50.820;4.548;2023-06-14T08:14:22;4.90;;;4.40;;
11582;SDS011;34299;50.820;4.548;2023-06-14T08:16:50;6.63;;;4.80;;
11582;SDS011;34299;50.820;4.548;2023-06-14T08:19:17;6.17;;;4.37;;
11582;SDS011;34299;50.820;4.548;2023-06-14T08:21:45;7.30;;;4.30;;
11582;SDS011;34299;50.820;4.548;2023-06-14T08:24:12;6.43;;;4.40;;
11582;SDS011;34299;50.820;4.548;2023-06-14T08:26:39;6.20;;;4.90;;
11582;SDS011;34299;50.820;4.548;2023-06-14T08:29:07;6.97;;;4.73;;
11582;SDS011;34299;50.820;4.548;2023-06-14T08:31:34;9.27;;;5.13;;
11582;SDS011;34299;50.820;4.548;2023-06-14T08:34:02;7.47;;;4.97;;
11582;SDS011;34299;50.820;4.548;2023-06-14T08:36:29;7.20;;;5.07;;
11582;SDS011;34299;50.820;4.548;2023-06-14T08:38:56;9.00;;;4.73;;
11582;SDS011;34299;50.820;4.548;2023-06-14T08:41:23;7.53;;;5.07;;
11582;SDS011;34299;50.820;4.548;2023-06-14T08:43:51;6.47;;;5.17;;
11582;SDS011;34299;50.820;4.548;2023-06-14T08:46:18;7.10;;;4.87;;
11582;SDS011;34299;50.820;4.548;2023-06-14T08:48:47;9.03;;;5.60;;
11582;SDS011;34299;50.820;4.548;2023-06-14T08:51:18;10.90;;;5.23;;
11582;SDS011;34299;50.820;4.548;2023-06-14T08:53:49;6.33;;;4.40;;
11582;SDS011;34299;50.820;4.548;2023-06-14T08:56:19;9.93;;;5.73;;
11582;SDS011;34299;50.820;4.548;2023-06-14T08:58:47;5.23;;;4.63;;
11582;SDS011;34299;50.820;4.548;2023-06-14T09:01:15;5.57;;;4.43;;
11582;SDS011;34299;50.820;4.548;2023-06-14T09:03:42;8.17;;;4.83;;
11582;SDS011;34299;50.820;4.548;2023-06-14T09:06:10;7.43;;;4.70;;
11582;SDS011;34299;50.820;4.548;2023-06-14T09:08:43;8.07;;;4.50;;
11582;SDS011;34299;50.820;4.548;2023-06-14T09:11:11;4.97;;;4.17;;
11582;SDS011;34299;50.820;4.548;2023-06-14T09:13:39;6.97;;;4.67;;
11582;SDS011;34299;50.820;4.548;2023-06-14T09:16:08;7.13;;;5.57;;
11582;SDS011;34299;50.820;4.548;2023-06-14T09:18:36;7.73;;;5.13;;
11582;SDS011;34299;50.820;4.548;2023-06-14T09:21:05;7.87;;;4.40;;
11582;SDS011;34299;50.820;4.548;2023-06-14T09:23:33;9.00;;;5.37;;
11582;SDS011;34299;50.820;4.548;2023-06-14T09:26:07;8.33;;;4.50;;
11582;SDS011;34299;50.820;4.548;2023-06-14T09:28:35;11.57;;;5.37;;
11582;SDS011;34299;50.820;4.548;2023-06-14T09:31:02;7.57;;;4.87;;
11582;SDS011;34299;50.820;4.548;2023-06-14T09:33:30;10.50;;;5.17;;
11582;SDS011;34299;50.820;4.548;2023-06-14T09:35:58;8.27;;;6.00;;
11582;SDS011;34299;50.820;4.548;2023-06-14T09:38:25;5.50;;;4.90;;
11582;SDS011;34299;50.820;4.548;2023-06-14T09:40:52;6.23;;;5.37;;
11582;SDS011;34299;50.820;4.548;2023-06-14T09:43:24;6.63;;;4.80;;
11582;SDS011;34299;50.820;4.548;2023-06-14T09:45:52;4.93;;;4.43;;
11582;SDS011;34299;50.820;4.548;2023-06-14T09:48:20;6.20;;;4.40;;
11582;SDS011;34299;50.820;4.548;2023-06-14T09:50:49;9.47;;;4.83;;
11582;SDS011;34299;50.820;4.548;2023-06-14T09:53:16;5.33;;;4.33;;
11582;SDS011;34299;50.820;4.548;2023-06-14T09:55:49;8.93;;;4.30;;
11582;SDS011;34299;50.820;4.548;2023-06-14T09:58:18;5.20;;;4.10;;
11582;SDS011;34299;50.820;4.548;2023-06-14T10:00:50;7.17;;;4.00;;
11582;SDS011;34299;50.820;4.548;2023-06-14T10:03:20;4.30;;;3.80;;
11582;SDS011;34299;50.820;4.548;2023-06-14T10:05:51;6.73;;;4.17;;
11582;SDS011;34299;50.820;4.548;2023-06-14T10:08:22;5.20;;;3.70;;
11582;SDS011;34299;50.820;4.548;2023-06-14T10:10:52;6.67;;;4.00;;
11582;SDS011;34299;50.820;4.548;2023-06-14T10:13:20;5.23;;;3.77;;
11582;SDS011;34299;50.820;4.548;2023-06-14T10:15:50;9.30;;;4.47;;
11582;SDS011;34299;50.820;4.548;2023-06-14T10:18:25;7.23;;;3.93;;
11582;SDS011;34299;50.820;4.548;2023-06-14T10:21:02;5.47;;;4.10;;
11582;SDS011;34299;50.820;4.548;2023-06-14T10:23:35;4.53;;;3.60;;
11582;SDS011;34299;50.820;4.548;2023-06-14T10:26:04;7.57;;;4.20;;
11582;SDS011;34299;50.820;4.548;2023-06-14T10:28:32;7.20;;;4.23;;
11582;SDS011;34299;50.820;4.548;2023-06-14T10:31:04;5.23;;;4.27;;
11582;SDS011;34299;50.820;4.548;2023-06-14T10:33:33;7.70;;;4.27;;
11582;SDS011;34299;50.820;4.548;2023-06-14T10:36:10;5.90;;;3.93;;
11582;SDS011;34299;50.820;4.548;2023-06-14T10:38:59;6.17;;;3.77;;
11582;SDS011;34299;50.820;4.548;2023-06-14T10:41:28;5.87;;;3.83;;
11582;SDS011;34299;50.820;4.548;2023-06-14T10:44:23;4.70;;;4.13;;
11582;SDS011;34299;50.820;4.548;2023-06-14T10:47:00;5.27;;;3.63;;
11582;SDS011;34299;50.820;4.548;2023-06-14T10:49:36;4.83;;;3.63;;
11582;SDS011;34299;50.820;4.548;2023-06-14T10:52:07;6.70;;;3.77;;
11582;SDS011;34299;50.820;4.548;2023-06-14T10:54:37;5.27;;;4.00;;
11582;SDS011;34299;50.820;4.548;2023-06-14T10:57:05;3.40;;;3.10;;
11582;SDS011;34299;50.820;4.548;2023-06-14T10:59:33;4.67;;;3.70;;
11582;SDS011;34299;50.820;4.548;2023-06-14T11:02:09;4.47;;;3.30;;
11582;SDS011;34299;50.820;4.548;2023-06-14T11:04:53;3.37;;;3.07;;
11582;SDS011;34299;50.820;4.548;2023-06-14T11:10:17;6.27;;;3.80;;
11582;SDS011;34299;50.820;4.548;2023-06-14T11:12:53;5.40;;;3.40;;
11582;SDS011;34299;50.820;4.548;2023-06-14T11:15:27;8.60;;;4.17;;
11582;SDS011;34299;50.820;4.548;2023-06-14T11:17:56;4.90;;;3.57;;
11582;SDS011;34299;50.820;4.548;2023-06-14T11:20:24;5.03;;;3.70;;
11582;SDS011;34299;50.820;4.548;2023-06-14T11:22:52;6.30;;;3.67;;
11582;SDS011;34299;50.820;4.548;2023-06-14T11:25:19;5.47;;;3.50;;
11582;SDS011;34299;50.820;4.548;2023-06-14T11:27:48;4.93;;;3.10;;
11582;SDS011;34299;50.820;4.548;2023-06-14T11:30:16;5.00;;;3.30;;
11582;SDS011;34299;50.820;4.548;2023-06-14T11:32:46;5.30;;;3.20;;
11582;SDS011;34299;50.820;4.548;2023-06-14T11:35:15;5.10;;;3.50;;
11582;SDS011;34299;50.820;4.548;2023-06-14T11:37:43;7.77;;;3.77;;
11582;SDS011;34299;50.820;4.548;2023-06-14T11:40:11;4.63;;;3.43;;
11582;SDS011;34299;50.820;4.548;2023-06-14T11:42:39;5.43;;;3.20;;
11582;SDS011;34299;50.820;4.548;2023-06-14T11:45:07;6.63;;;3.63;;
11582;SDS011;34299;50.820;4.548;2023-06-14T11:47:35;5.33;;;4.03;;
11582;SDS011;34299;50.820;4.548;2023-06-14T11:50:03;6.37;;;3.53;;
11582;SDS011;34299;50.820;4.548;2023-06-14T11:52:33;4.70;;;3.03;;
11582;SDS011;34299;50.820;4.548;2023-06-14T11:55:00;6.60;;;3.13;;
11582;SDS011;34299;50.820;4.548;2023-06-14T11:57:30;7.10;;;3.07;;
11582;SDS011;34299;50.820;4.548;2023-06-14T11:59:57;6.50;;;3.10;;
11582;SDS011;34299;50.820;4.548;2023-06-14T12:02:24;4.97;;;3.03;;
11582;SDS011;34299;50.820;4.548;2023-06-14T12:04:54;11.47;;;4.93;;
11582;SDS011;34299;50.820;4.548;2023-06-14T12:07:22;16.73;;;6.87;;
11582;SDS011;34299;50.820;4.548;2023-06-14T12:10:08;13.33;;;4.07;;
11582;SDS011;34299;50.820;4.548;2023-06-14T12:12:36;11.27;;;5.27;;
11582;SDS011;34299;50.820;4.548;2023-06-14T12:15:04;10.87;;;4.50;;
11582;SDS011;34299;50.820;4.548;2023-06-14T12:17:32;11.83;;;5.57;;
11582;SDS011;34299;50.820;4.548;2023-06-14T12:20:04;13.63;;;5.50;;
11582;SDS011;34299;50.820;4.548;2023-06-14T12:22:36;13.20;;;4.10;;
11582;SDS011;34299;50.820;4.548;2023-06-14T12:25:04;11.47;;;4.13;;
11582;SDS011;34299;50.820;4.548;2023-06-14T12:27:32;10.37;;;3.80;;
11582;SDS011;34299;50.820;4.548;2023-06-14T12:30:00;10.33;;;5.20;;
11582;SDS011;34299;50.820;4.548;2023-06-14T12:32:28;9.63;;;3.73;;
11582;SDS011;34299;50.820;4.548;2023-06-14T12:34:55;6.03;;;3.30;;
11582;SDS011;34299;50.820;4.548;2023-06-14T12:37:22;3.83;;;2.60;;
11582;SDS011;34299;50.820;4.548;2023-06-14T12:39:50;8.30;;;3.00;;
11582;SDS011;34299;50.820;4.548;2023-06-14T12:42:17;3.93;;;2.90;;
11582;SDS011;34299;50.820;4.548;2023-06-14T12:44:45;3.97;;;2.90;;
11582;SDS011;34299;50.820;4.548;2023-06-14T12:47:12;3.20;;;2.90;;
11582;SDS011;34299;50.820;4.548;2023-06-14T12:49:39;4.87;;;2.70;;
11582;SDS011;34299;50.820;4.548;2023-06-14T12:52:07;4.87;;;2.73;;
11582;SDS011;34299;50.820;4.548;2023-06-14T12:54:35;4.37;;;2.67;;
11582;SDS011;34299;50.820;4.548;2023-06-14T12:57:04;4.63;;;2.97;;
11582;SDS011;34299;50.820;4.548;2023-06-14T12:59:32;3.20;;;2.70;;
11582;SDS011;34299;50.820;4.548;2023-06-14T13:02:01;4.00;;;2.40;;
11582;SDS011;34299;50.820;4.548;2023-06-14T13:04:37;5.33;;;2.93;;
11582;SDS011;34299;50.820;4.548;2023-06-14T13:07:05;2.87;;;2.63;;
11582;SDS011;34299;50.820;4.548;2023-06-14T13:09:32;5.27;;;2.77;;
11582;SDS011;34299;50.820;4.548;2023-06-14T13:12:00;3.20;;;2.50;;
11582;SDS011;34299;50.820;4.548;2023-06-14T13:14:27;4.10;;;3.07;;
11582;SDS011;34299;50.820;4.548;2023-06-14T13:16:54;3.93;;;2.70;;
11582;SDS011;34299;50.820;4.548;2023-06-14T13:19:23;4.70;;;2.70;;
11582;SDS011;34299;50.820;4.548;2023-06-14T13:21:50;3.17;;;2.73;;
11582;SDS011;34299;50.820;4.548;2023-06-14T13:24:17;2.37;;;2.17;;
11582;SDS011;34299;50.820;4.548;2023-06-14T13:26:44;2.97;;;2.57;;
11582;SDS011;34299;50.820;4.548;2023-06-14T13:29:11;4.63;;;2.10;;
11582;SDS011;34299;50.820;4.548;2023-06-14T13:31:38;5.03;;;2.47;;
11582;SDS011;34299;50.820;4.548;2023-06-14T13:34:05;5.13;;;2.30;;
11582;SDS011;34299;50.820;4.548;2023-06-14T13:36:34;4.57;;;2.30;;
11582;SDS011;34299;50.820;4.548;2023-06-14T13:39:01;3.00;;;2.13;;
11582;SDS011;34299;50.820;4.548;2023-06-14T13:41:31;2.97;;;2.17;;
11582;SDS011;34299;50.820;4.548;2023-06-14T13:43:59;3.77;;;2.40;;
11582;SDS011;34299;50.820;4.548;2023-06-14T13:46:29;3.10;;;2.43;;
11582;SDS011;34299;50.820;4.548;2023-06-14T13:48:56;4.13;;;2.20;;
11582;SDS011;34299;50.820;4.548;2023-06-14T13:51:25;2.47;;;2.20;;
11582;SDS011;34299;50.820;4.548;2023-06-14T13:53:54;2.90;;;2.23;;
11582;SDS011;34299;50.820;4.548;2023-06-14T13:56:21;3.40;;;2.23;;
11582;SDS011;34299;50.820;4.548;2023-06-14T13:58:49;3.05;;;2.10;;
11582;SDS011;34299;50.820;4.548;2023-06-14T14:01:17;3.45;;;2.00;;
11582;SDS011;34299;50.820;4.548;2023-06-14T14:03:45;2.45;;;1.80;;
11582;SDS011;34299;50.820;4.548;2023-06-14T14:06:12;3.10;;;1.70;;
11582;SDS011;34299;50.820;4.548;2023-06-14T14:08:39;2.25;;;1.83;;
11582;SDS011;34299;50.820;4.548;2023-06-14T14:11:08;1.77;;;1.60;;
11582;SDS011;34299;50.820;4.548;2023-06-14T14:13:36;2.10;;;1.52;;
11582;SDS011;34299;50.820;4.548;2023-06-14T14:16:03;2.58;;;1.40;;
11582;SDS011;34299;50.820;4.548;2023-06-14T14:18:31;5.05;;;2.03;;
11582;SDS011;34299;50.820;4.548;2023-06-14T14:20:59;1.67;;;1.43;;
11582;SDS011;34299;50.820;4.548;2023-06-14T14:23:27;3.15;;;1.40;;
11582;SDS011;34299;50.820;4.548;2023-06-14T14:25:55;1.50;;;1.40;;
11582;SDS011;34299;50.820;4.548;2023-06-14T14:28:24;2.67;;;1.57;;
11582;SDS011;34299;50.820;4.548;2023-06-14T14:30:51;2.27;;;1.53;;
11582;SDS011;34299;50.820;4.548;2023-06-14T14:33:19;1.53;;;1.40;;
11582;SDS011;34299;50.820;4.548;2023-06-14T14:35:46;1.50;;;1.40;;
11582;SDS011;34299;50.820;4.548;2023-06-14T14:38:13;2.57;;;1.53;;
11582;SDS011;34299;50.820;4.548;2023-06-14T14:40:40;2.63;;;1.23;;
11582;SDS011;34299;50.820;4.548;2023-06-14T14:43:07;3.40;;;1.90;;
11582;SDS011;34299;50.820;4.548;2023-06-14T14:45:36;4.03;;;1.60;;
11582;SDS011;34299;50.820;4.548;2023-06-14T14:48:04;1.60;;;1.37;;
11582;SDS011;34299;50.820;4.548;2023-06-14T14:50:32;4.77;;;1.70;;
11582;SDS011;34299;50.820;4.548;2023-06-14T14:52:59;2.83;;;1.40;;
11582;SDS011;34299;50.820;4.548;2023-06-14T14:55:27;1.50;;;1.40;;